createdAt,value
2018-11-07T00:04:22.841Z,99.90
2018-11-07T00:09:26.006Z,99.90
2018-11-07T00:14:29.136Z,99.90
2018-11-07T00:19:32.278Z,99.90
2018-11-07T00:24:35.474Z,99.90
2018-11-07T00:29:38.637Z,99.90
2018-11-07T00:34:41.748Z,99.90
2018-11-07T00:39:44.937Z,99.90
2018-11-07T00:44:48.163Z,99.90
2018-11-07T00:49:51.325Z,99.90
2018-11-07T00:54:54.490Z,99.90
2018-11-07T00:59:57.695Z,99.90
2018-11-07T01:05:00.848Z,99.90
2018-11-07T01:10:04.763Z,99.80
2018-11-07T01:15:08.569Z,99.90
2018-11-07T01:20:13.097Z,99.90
2018-11-07T01:25:16.270Z,99.90
2018-11-07T01:30:19.435Z,99.90
2018-11-07T01:35:22.706Z,99.90
2018-11-07T01:40:25.935Z,99.90
2018-11-07T01:45:29.026Z,99.90
2018-11-07T01:50:32.145Z,99.80
2018-11-07T01:55:35.271Z,99.70
2018-11-07T02:00:38.442Z,99.70
2018-11-07T02:05:41.590Z,99.70
2018-11-07T02:10:44.759Z,99.70
2018-11-07T02:15:47.906Z,99.70
2018-11-07T02:20:51.059Z,99.60
2018-11-07T02:25:54.180Z,99.60
2018-11-07T02:30:57.327Z,99.60
2018-11-07T02:36:00.474Z,99.50
2018-11-07T02:41:03.609Z,99.60
2018-11-07T02:46:07.330Z,99.90
2018-11-07T02:51:10.498Z,99.90
2018-11-07T02:56:13.687Z,99.60
2018-11-07T03:01:16.904Z,99.70
2018-11-07T03:06:20.063Z,99.80
2018-11-07T03:11:23.199Z,99.90
2018-11-07T03:16:26.367Z,99.90
2018-11-07T03:21:29.516Z,99.70
2018-11-07T03:26:32.665Z,99.70
2018-11-07T03:31:35.844Z,99.90
2018-11-07T03:36:39.001Z,99.90
2018-11-07T03:41:42.161Z,99.90
2018-11-07T03:46:45.376Z,99.90
2018-11-07T03:51:48.498Z,99.90
2018-11-07T03:56:51.701Z,99.90
2018-11-07T04:01:54.846Z,99.90
2018-11-07T04:06:57.934Z,99.90
2018-11-07T04:12:01.082Z,99.90
2018-11-07T04:17:04.206Z,99.90
2018-11-07T04:22:07.354Z,99.90
2018-11-07T04:27:10.521Z,99.90
2018-11-07T04:37:16.753Z,99.90
2018-11-07T04:42:19.893Z,99.90
2018-11-07T04:47:23.378Z,99.90
2018-11-07T04:52:26.607Z,99.90
2018-11-07T04:57:29.697Z,99.90
2018-11-07T05:02:32.874Z,99.90
2018-11-07T05:07:36.089Z,99.90
2018-11-07T05:12:39.505Z,99.90
2018-11-07T05:17:42.724Z,99.90
2018-11-07T05:22:45.818Z,99.90
2018-11-07T05:27:48.991Z,99.90
2018-11-07T05:32:52.121Z,99.90
2018-11-07T05:37:55.250Z,99.90
2018-11-07T05:42:58.406Z,99.90
2018-11-07T05:48:01.558Z,99.90
2018-11-07T05:53:04.924Z,99.90
2018-11-07T05:58:08.067Z,99.90
2018-11-07T06:03:11.280Z,99.90
2018-11-07T06:08:14.480Z,99.90
2018-11-07T06:13:17.625Z,99.90
2018-11-07T06:18:20.804Z,99.90
2018-11-07T06:23:23.905Z,99.90
2018-11-07T06:28:27.058Z,99.90
2018-11-07T06:33:30.209Z,99.90
2018-11-07T06:38:33.329Z,99.90
2018-11-07T06:43:36.453Z,99.90
2018-11-07T06:48:39.611Z,99.90
2018-11-07T06:53:42.793Z,99.90
2018-11-07T06:58:45.986Z,99.90
2018-11-07T07:03:49.126Z,99.90
2018-11-07T07:08:52.283Z,99.90
2018-11-07T07:13:55.455Z,99.90
2018-11-07T07:18:58.622Z,99.90
2018-11-07T07:24:02.070Z,99.40
2018-11-07T07:29:05.562Z,99.60
2018-11-07T07:34:08.785Z,99.90
2018-11-07T07:39:11.954Z,99.50
2018-11-07T07:44:15.126Z,99.10
2018-11-07T07:49:18.368Z,98.40
2018-11-07T07:54:21.492Z,98.30
2018-11-07T07:59:24.657Z,98.40
2018-11-07T08:04:27.811Z,98.50
2018-11-07T08:09:40.631Z,98.70
2018-11-07T08:14:43.769Z,98.90
2018-11-07T08:19:46.929Z,99.10
2018-11-07T08:24:50.096Z,99.30
2018-11-07T08:29:53.394Z,99.30
2018-11-07T08:34:56.523Z,99.30
2018-11-07T08:39:59.679Z,99.10
2018-11-07T08:45:02.880Z,99.10
2018-11-07T08:50:08.501Z,99.00
2018-11-07T08:55:13.270Z,99.00
2018-11-07T09:00:23.133Z,99.10
2018-11-07T09:05:26.258Z,98.80
2018-11-07T09:10:29.439Z,98.30
2018-11-07T09:15:32.592Z,97.90
2018-11-07T09:20:35.791Z,97.10
2018-11-07T09:25:38.986Z,96.40
2018-11-07T09:30:42.081Z,95.90
2018-11-07T09:35:45.284Z,93.80
2018-11-07T09:40:48.438Z,92.50
2018-11-07T09:45:51.600Z,90.30
2018-11-07T09:50:54.778Z,91.20
2018-11-07T09:55:58.009Z,92.00
2018-11-07T10:01:01.134Z,93.00
2018-11-07T10:06:04.323Z,93.10
2018-11-07T10:11:07.601Z,93.60
2018-11-07T10:16:10.762Z,93.10
2018-11-07T10:21:13.930Z,93.10
2018-11-07T10:26:17.096Z,92.60
2018-11-07T10:31:20.281Z,92.50
2018-11-07T10:36:23.418Z,92.10
2018-11-07T10:41:26.552Z,90.90
2018-11-07T10:46:29.768Z,87.90
2018-11-07T10:51:32.846Z,82.30
2018-11-07T10:56:35.987Z,78.70
2018-11-07T11:01:57.314Z,74.60
2018-11-07T11:07:00.537Z,70.00
2018-11-07T11:12:03.668Z,66.60
2018-11-07T11:17:06.870Z,62.00
2018-11-07T11:22:10.231Z,57.70
2018-11-07T11:27:13.514Z,51.60
2018-11-07T11:32:16.660Z,47.30
2018-11-07T11:37:19.757Z,45.00
2018-11-07T11:42:22.915Z,44.80
2018-11-07T11:47:26.243Z,43.20
2018-11-07T11:52:29.350Z,42.60
2018-11-07T11:57:32.508Z,42.80
2018-11-07T12:02:35.659Z,42.60
2018-11-07T12:07:39.070Z,41.60
2018-11-07T12:12:42.610Z,42.80
2018-11-07T12:17:45.786Z,41.40
2018-11-07T12:22:49.068Z,42.30
2018-11-07T12:27:52.251Z,41.30
2018-11-07T12:32:55.663Z,40.60
2018-11-07T12:37:58.716Z,40.90
2018-11-07T12:43:01.879Z,40.50
2018-11-07T12:48:05.189Z,39.90
2018-11-07T12:53:08.320Z,39.80
2018-11-07T12:58:11.622Z,41.70
2018-11-07T13:03:15.592Z,43.80
2018-11-07T13:08:18.790Z,43.80
2018-11-07T13:13:21.992Z,43.60
2018-11-07T13:18:25.146Z,44.30
2018-11-07T13:23:28.302Z,42.60
2018-11-07T13:28:31.460Z,46.00
2018-11-07T13:33:34.586Z,47.20
2018-11-07T13:38:38.167Z,47.90
2018-11-07T13:43:40.875Z,50.40
2018-11-07T13:48:43.980Z,51.00
2018-11-07T13:53:47.165Z,51.00
2018-11-07T13:58:50.335Z,54.40
2018-11-07T14:03:53.483Z,56.40
2018-11-07T14:08:56.583Z,58.10
2018-11-07T14:13:59.905Z,61.00
2018-11-07T14:19:03.034Z,64.50
2018-11-07T14:24:06.674Z,65.00
2018-11-07T14:29:10.006Z,66.40
2018-11-07T14:34:13.158Z,67.20
2018-11-07T14:39:16.365Z,68.10
2018-11-07T14:44:19.549Z,66.80
2018-11-07T14:49:22.674Z,68.40
2018-11-07T14:54:25.860Z,66.60
2018-11-07T14:59:28.959Z,68.30
2018-11-07T15:04:32.110Z,74.30
2018-11-07T15:09:35.316Z,74.70
2018-11-07T15:14:38.558Z,74.80
2018-11-07T15:19:41.641Z,74.60
2018-11-07T15:24:44.819Z,75.70
2018-11-07T15:29:47.905Z,77.20
2018-11-07T15:34:51.072Z,78.10
2018-11-07T15:39:54.158Z,82.60
2018-11-07T15:44:57.434Z,85.00
2018-11-07T15:50:18.474Z,86.30
2018-11-07T15:55:21.551Z,88.00
2018-11-07T16:00:24.726Z,89.00
2018-11-07T16:05:27.948Z,90.00
2018-11-07T16:10:31.103Z,90.30
2018-11-07T16:15:34.321Z,90.60
2018-11-07T16:20:37.483Z,91.00
2018-11-07T16:25:40.548Z,91.20
2018-11-07T16:30:43.730Z,91.40
2018-11-07T16:35:46.831Z,91.70
2018-11-07T16:40:50.077Z,91.80
2018-11-07T16:45:53.148Z,91.90
2018-11-07T16:50:56.326Z,92.20
2018-11-07T16:55:59.443Z,92.50
2018-11-07T17:01:02.609Z,92.50
2018-11-07T17:06:05.730Z,92.60
2018-11-07T17:11:08.877Z,92.70
2018-11-07T17:16:12.025Z,92.70
2018-11-07T17:21:15.201Z,92.70
2018-11-07T17:26:18.381Z,92.90
2018-11-07T17:31:21.540Z,92.80
2018-11-07T17:36:24.698Z,92.90
2018-11-07T17:41:27.857Z,92.80
2018-11-07T17:46:30.987Z,92.90
2018-11-07T17:51:34.198Z,92.80
2018-11-07T17:56:37.311Z,92.90
2018-11-07T18:01:40.415Z,93.10
2018-11-07T18:06:43.550Z,93.00
2018-11-07T18:11:46.716Z,93.40
2018-11-07T18:16:49.833Z,93.60
2018-11-07T18:21:52.954Z,93.60
2018-11-07T18:26:56.142Z,93.80
2018-11-07T18:31:59.303Z,93.90
2018-11-07T18:37:02.561Z,94.20
2018-11-07T18:42:05.696Z,94.30
2018-11-07T18:47:08.871Z,94.60
2018-11-07T18:52:12.006Z,95.20
2018-11-07T18:57:15.258Z,95.70
2018-11-07T19:02:18.443Z,95.20
2018-11-07T19:07:21.621Z,94.80
2018-11-07T19:12:24.810Z,94.70
2018-11-07T19:17:27.924Z,94.80
2018-11-07T19:22:31.087Z,94.80
2018-11-07T19:27:34.306Z,94.60
2018-11-07T19:32:37.695Z,94.10
2018-11-07T19:37:40.806Z,94.00
2018-11-07T19:42:43.883Z,93.90
2018-11-07T19:47:47.168Z,94.10
2018-11-07T19:52:50.905Z,94.20
2018-11-07T19:58:01.409Z,94.50
2018-11-07T20:03:04.662Z,94.70
2018-11-07T20:08:07.820Z,94.80
2018-11-07T20:13:11.017Z,95.10
2018-11-07T20:18:14.170Z,95.20
2018-11-07T20:23:17.420Z,95.50
2018-11-07T20:28:20.534Z,95.70
2018-11-07T20:33:23.697Z,95.70
2018-11-07T20:38:26.854Z,95.90
2018-11-07T20:43:29.950Z,96.30
2018-11-07T20:48:33.108Z,96.50
2018-11-07T20:53:36.229Z,96.90
2018-11-07T20:58:39.421Z,97.00
2018-11-07T21:03:42.483Z,97.30
2018-11-07T21:08:45.630Z,97.50
2018-11-07T21:13:48.799Z,97.60
2018-11-07T21:18:51.932Z,97.60
2018-11-07T21:23:55.303Z,97.60
2018-11-07T21:28:58.423Z,97.90
2018-11-07T21:34:01.587Z,98.10
2018-11-07T21:39:08.180Z,98.40
2018-11-07T21:44:11.338Z,98.80
2018-11-07T21:49:14.484Z,99.00
2018-11-07T21:54:17.563Z,99.00
2018-11-07T21:59:20.693Z,99.10
2018-11-07T22:04:23.882Z,99.10
2018-11-07T22:09:27.262Z,99.00
2018-11-07T22:14:30.858Z,99.40
2018-11-07T22:19:34.187Z,99.00
2018-11-07T22:24:37.524Z,99.10
2018-11-07T22:29:44.785Z,99.30
2018-11-07T22:34:48.437Z,99.20
2018-11-07T22:39:51.632Z,99.00
2018-11-07T22:44:55.244Z,98.90
2018-11-07T22:49:58.545Z,99.00
2018-11-07T22:55:01.777Z,99.00
2018-11-07T23:00:30.667Z,98.90
2018-11-07T23:05:33.807Z,98.90
2018-11-07T23:10:36.997Z,98.80
2018-11-07T23:15:46.172Z,98.90
2018-11-07T23:20:49.325Z,98.90
2018-11-07T23:25:52.528Z,99.10
2018-11-07T23:30:55.684Z,99.10
2018-11-07T23:35:58.891Z,99.00
2018-11-07T23:41:02.059Z,99.10
2018-11-07T23:46:05.508Z,99.00
2018-11-07T23:51:08.697Z,98.90
2018-11-07T23:56:11.903Z,98.80
